Time;durP1;ratioP1;P1;durP2;ratioP2;P2;SDS_P1;SDS_P2;PMS_P1;PMS_P2;Temp;Humidity;BMP_temperature;BMP_pressure;BME280_temperature;BME280_humidity;BME280_pressure;Samples;Min_cycle;Max_cycle;Signal;HPM_P1;HPM_P2
2021/03/16 00:00:22;;;;;;;94.75;48.15;;;;;;;2.93;54.62;98043.26;124210;1105;104278;-70
2021/03/16 00:03:09;;;;;;;88.20;44.70;;;;;;;2.88;55.25;98054.05;125512;1105;101898;-71
2021/03/16 00:05:38;;;;;;;79.83;42.07;;;;;;;2.83;55.23;98054.32;124237;1105;104182;-71
2021/03/16 00:08:05;;;;;;;85.33;43.60;;;;;;;2.81;54.79;98050.94;124351;1105;104232;-70
2021/03/16 00:10:32;;;;;;;72.77;39.33;;;;;;;2.78;54.90;98051.11;124299;1105;104159;-71
2021/03/16 00:12:59;;;;;;;77.70;40.13;;;;;;;2.74;54.98;98053.98;124313;1105;104255;-71
2021/03/16 00:15:25;;;;;;;74.63;39.20;;;;;;;2.73;55.28;98052.28;124282;1105;104313;-71
2021/03/16 00:17:52;;;;;;;73.62;38.40;;;;;;;2.71;55.51;98055.02;124318;1105;104300;-71
2021/03/16 00:20:20;;;;;;;67.43;36.10;;;;;;;2.67;54.81;98058.74;124725;1105;102099;-70
2021/03/16 00:22:47;;;;;;;67.70;35.63;;;;;;;2.64;55.12;98048.41;126198;1105;104184;-72
2021/03/16 00:25:17;;;;;;;66.07;34.63;;;;;;;2.61;55.10;98056.45;124159;1105;104250;-71
2021/03/16 00:27:46;;;;;;;66.37;34.00;;;;;;;2.60;55.73;98053.00;124307;1105;104207;-72
2021/03/16 00:30:13;;;;;;;71.63;37.50;;;;;;;2.60;55.04;98049.52;124239;1104;104223;-71
2021/03/16 00:32:40;;;;;;;61.40;33.53;;;;;;;2.58;55.74;98035.63;124239;1105;104153;-71
2021/03/16 00:35:08;;;;;;;68.77;37.73;;;;;;;2.57;55.38;98037.42;124143;1105;104243;-72
2021/03/16 00:37:35;;;;;;;68.70;35.63;;;;;;;2.56;55.12;98032.23;124137;1106;104156;-71
2021/03/16 00:40:06;;;;;;;66.25;36.85;;;;;;;2.55;55.75;98043.67;124326;1105;104265;-71
2021/03/16 00:42:33;;;;;;;69.97;35.63;;;;;;;2.52;55.28;98037.66;124192;1105;104230;-71
2021/03/16 00:45:02;;;;;;;64.00;33.47;;;;;;;2.51;55.90;98037.77;124166;1105;104253;-71
2021/03/16 00:47:31;;;;;;;65.97;35.00;;;;;;;2.50;55.85;98030.81;124324;1105;104230;-70
2021/03/16 00:50:00;;;;;;;63.70;34.10;;;;;;;2.49;55.84;98037.00;124302;1105;104152;-70
2021/03/16 00:52:27;;;;;;;64.10;33.50;;;;;;;2.45;55.09;98036.31;124350;1105;104236;-70
2021/03/16 00:54:54;;;;;;;61.92;33.40;;;;;;;2.44;55.55;98033.78;124266;1105;104258;-70
2021/03/16 00:57:25;;;;;;;59.80;32.67;;;;;;;2.41;56.00;98034.81;124222;1105;104191;-70
2021/03/16 00:59:53;;;;;;;60.83;30.47;;;;;;;2.40;55.69;98035.75;124291;1105;104236;-70
2021/03/16 01:02:33;;;;;;;57.40;30.30;;;;;;;2.35;55.76;98030.73;124174;1105;103989;-71
2021/03/16 01:05:00;;;;;;;56.57;31.17;;;;;;;2.31;56.01;98031.83;124243;1105;104258;-72
2021/03/16 01:07:27;;;;;;;60.97;31.53;;;;;;;2.28;55.10;98026.75;123926;1105;104348;-71
2021/03/16 01:09:54;;;;;;;61.68;33.45;;;;;;;2.23;55.68;98023.56;124167;1105;104293;-71
2021/03/16 01:12:22;;;;;;;57.83;30.97;;;;;;;2.15;56.17;98017.89;124194;1105;104168;-71
2021/03/16 01:14:49;;;;;;;58.00;32.05;;;;;;;2.07;55.51;98027.02;124523;1105;104184;-71
2021/03/16 01:17:16;;;;;;;63.47;32.43;;;;;;;2.01;55.43;98031.77;124260;1105;104178;-70
2021/03/16 01:19:45;;;;;;;64.30;34.50;;;;;;;1.93;55.24;98030.41;124223;1105;104182;-70
2021/03/16 01:22:14;;;;;;;61.70;34.23;;;;;;;1.82;55.57;98032.75;124212;1104;104293;-71
2021/03/16 01:24:41;;;;;;;67.27;35.67;;;;;;;1.77;55.45;98033.00;124225;1105;104682;-71
2021/03/16 01:27:08;;;;;;;61.33;33.33;;;;;;;1.71;55.51;98037.70;124259;1106;104213;-71
2021/03/16 01:29:35;;;;;;;62.40;33.58;;;;;;;1.68;55.50;98035.25;124225;1105;104226;-71
2021/03/16 01:32:02;;;;;;;64.43;33.87;;;;;;;1.66;55.84;98034.48;124303;1105;104274;-72
2021/03/16 01:34:31;;;;;;;61.53;34.93;;;;;;;1.64;55.74;98035.41;124229;1105;104344;-71
2021/03/16 01:36:58;;;;;;;66.77;36.23;;;;;;;1.63;56.32;98040.75;124152;1105;104370;-71
2021/03/16 01:39:25;;;;;;;63.93;32.30;;;;;;;1.61;56.20;98038.22;125169;1105;104255;-70
2021/03/16 01:41:52;;;;;;;67.60;35.40;;;;;;;1.57;56.01;98043.69;124237;1105;104331;-70
2021/03/16 01:44:19;;;;;;;66.60;34.60;;;;;;;1.53;56.03;98044.77;124265;1105;104153;-71
2021/03/16 01:46:46;;;;;;;63.80;33.73;;;;;;;1.52;56.38;98032.59;124314;1105;104274;-70
2021/03/16 01:49:15;;;;;;;65.47;35.67;;;;;;;1.49;55.94;98039.69;124199;1105;104187;-70
2021/03/16 01:51:44;;;;;;;70.97;35.83;;;;;;;1.48;56.03;98042.40;124285;1105;104185;-70
2021/03/16 01:54:14;;;;;;;67.33;36.67;;;;;;;1.48;56.52;98045.85;124280;1105;104274;-70
2021/03/16 01:56:43;;;;;;;63.83;34.77;;;;;;;1.47;56.41;98035.47;124322;1105;104176;-69
2021/03/16 01:59:17;;;;;;;63.57;34.73;;;;;;;1.48;56.53;98034.54;124270;1105;104307;-70
2021/03/16 02:01:46;;;;;;;67.70;36.07;;;;;;;1.47;56.66;98043.33;124307;1106;104245;-71
2021/03/16 02:04:13;;;;;;;68.93;37.90;;;;;;;1.45;56.36;98043.39;124297;1105;104220;-71
2021/03/16 02:07:03;;;;;;;65.95;35.45;;;;;;;1.46;56.50;98041.63;124328;1105;104223;-72
2021/03/16 02:09:52;;;;;;;65.13;36.10;;;;;;;1.46;56.37;98037.22;124195;1105;104149;-70
2021/03/16 02:12:32;;;;;;;71.07;35.67;;;;;;;1.46;56.39;98042.47;124234;1105;104255;-71
2021/03/16 02:15:28;;;;;;;67.27;36.77;;;;;;;1.44;56.93;98048.72;124527;1105;104178;-71
2021/03/16 02:18:03;;;;;;;65.77;34.03;;;;;;;1.42;56.75;98043.58;124298;1106;104227;-72
2021/03/16 02:20:59;;;;;;;65.20;34.70;;;;;;;1.42;57.24;98037.47;124192;1106;104161;-71
2021/03/16 02:23:49;;;;;;;64.97;34.70;;;;;;;1.39;56.80;98043.73;124351;1105;104242;-69
2021/03/16 02:26:29;;;;;;;65.87;36.07;;;;;;;1.36;56.78;98041.27;123932;1106;104448;-71
2021/03/16 02:29:08;;;;;;;71.07;37.37;;;;;;;1.33;57.13;98049.28;124272;1105;104184;-70
2021/03/16 02:31:43;;;;;;;65.00;34.67;;;;;;;1.31;57.07;98049.34;124261;1105;104259;-69
2021/03/16 02:34:16;;;;;;;66.97;36.30;;;;;;;1.27;56.94;98045.19;124140;1105;104265;-70
2021/03/16 02:36:48;;;;;;;71.28;36.77;;;;;;;1.23;57.11;98054.12;124320;1105;104217;-71
2021/03/16 02:39:18;;;;;;;74.13;39.47;;;;;;;1.20;57.08;98054.31;124312;1105;104460;-74
2021/03/16 02:41:48;;;;;;;74.90;37.80;;;;;;;1.19;57.03;98056.06;124138;1105;104171;-71
2021/03/16 02:44:17;;;;;;;78.20;39.03;;;;;;;1.17;56.75;98050.05;124238;1105;104191;-71
2021/03/16 02:46:48;;;;;;;75.07;39.23;;;;;;;1.14;56.65;98055.45;124285;1105;104245;-73
2021/03/16 02:49:19;;;;;;;73.20;38.73;;;;;;;1.14;57.19;98055.45;124207;1105;104256;-71
2021/03/16 02:51:50;;;;;;;80.20;40.37;;;;;;;1.15;57.38;98051.07;124321;1105;104695;-71
2021/03/16 02:54:20;;;;;;;69.87;37.80;;;;;;;1.09;57.41;98067.92;125107;1105;104159;-72
2021/03/16 02:56:58;;;;;;;69.80;38.57;;;;;;;1.02;56.93;98062.16;124262;1105;104255;-69
2021/03/16 02:59:29;;;;;;;76.23;41.40;;;;;;;0.96;57.02;98064.24;124221;1105;104248;-70
2021/03/16 03:02:00;;;;;;;79.93;41.10;;;;;;;0.86;56.66;98066.45;124209;1105;104262;-71
2021/03/16 03:04:30;;;;;;;73.63;39.93;;;;;;;0.78;57.21;98058.98;124210;1105;104182;-70
2021/03/16 03:07:00;;;;;;;71.90;38.40;;;;;;;0.74;57.85;98062.66;124496;1104;104222;-71
2021/03/16 03:09:29;;;;;;;71.90;38.60;;;;;;;0.70;57.29;98061.98;124199;1105;104185;-70
2021/03/16 03:11:56;;;;;;;70.53;37.93;;;;;;;0.72;57.39;98060.14;124184;1105;104261;-71
2021/03/16 03:14:23;;;;;;;70.15;38.05;;;;;;;0.71;57.47;98060.20;124241;1105;104364;-70
2021/03/16 03:16:50;;;;;;;76.65;40.55;;;;;;;0.67;57.26;98064.74;124126;1105;104166;-70
2021/03/16 03:19:18;;;;;;;77.23;39.63;;;;;;;0.65;57.93;98063.11;124197;1105;104254;-71
2021/03/16 03:22:21;;;;;;;80.25;39.85;;;;;;;0.64;57.55;98062.27;125399;1105;102107;-71
2021/03/16 03:24:58;;;;;;;78.17;38.97;;;;;;;0.64;57.45;98071.88;124167;1105;104223;-70
2021/03/16 03:27:36;;;;;;;71.90;39.67;;;;;;;0.63;57.62;98070.18;124260;1105;104252;-70
2021/03/16 03:30:05;;;;;;;71.93;39.20;;;;;;;0.62;57.55;98069.35;124289;1105;104261;-70
2021/03/16 03:32:35;;;;;;;74.40;38.93;;;;;;;0.63;57.78;98068.42;124194;1105;104239;-69
2021/03/16 03:35:05;;;;;;;76.80;40.33;;;;;;;0.66;57.80;98070.03;125245;1104;104152;-72
2021/03/16 03:37:34;;;;;;;72.17;38.40;;;;;;;0.69;58.04;98069.89;124205;1105;104682;-69
2021/03/16 03:40:05;;;;;;;76.20;38.50;;;;;;;0.72;57.80;98069.74;124230;1105;104281;-69
2021/03/16 03:42:35;;;;;;;75.43;39.30;;;;;;;0.75;57.83;98072.21;124236;1105;104179;-70
2021/03/16 03:45:05;;;;;;;72.83;39.80;;;;;;;0.78;57.92;98068.62;124182;1105;104644;-69
2021/03/16 03:47:33;;;;;;;78.67;40.40;;;;;;;0.80;58.09;98070.22;124199;1105;104181;-71
2021/03/16 03:50:02;;;;;;;71.50;38.67;;;;;;;0.83;58.33;98074.45;124157;1105;104294;-72
2021/03/16 03:52:32;;;;;;;78.50;41.00;;;;;;;0.82;58.32;98072.75;124210;1105;104223;-70
2021/03/16 03:55:06;;;;;;;76.00;38.83;;;;;;;0.83;58.33;98082.30;124190;1105;104313;-71
2021/03/16 03:57:56;;;;;;;70.43;38.67;;;;;;;0.82;58.32;98076.23;124220;1105;104223;-69
2021/03/16 04:00:25;;;;;;;77.97;40.17;;;;;;;0.85;58.23;98075.22;124274;1105;104243;-72
2021/03/16 04:02:54;;;;;;;77.13;40.50;;;;;;;0.84;58.24;98074.39;124239;1105;104162;-71
2021/03/16 04:05:24;;;;;;;80.97;41.47;;;;;;;0.85;58.25;98080.45;124296;1105;104169;-71
2021/03/16 04:07:54;;;;;;;78.67;42.00;;;;;;;0.86;58.43;98080.41;124236;1105;104278;-71
2021/03/16 04:10:21;;;;;;;82.77;43.40;;;;;;;0.83;58.00;98084.92;124736;1105;104159;-70
2021/03/16 04:12:50;;;;;;;76.27;39.47;;;;;;;0.77;58.62;98080.02;124093;1105;104682;-70
2021/03/16 04:15:17;;;;;;;78.03;43.03;;;;;;;0.74;58.40;98087.09;124317;1105;104313;-74
2021/03/16 04:17:48;;;;;;;82.23;41.17;;;;;;;0.76;58.59;98087.00;124360;1105;104348;-73
2021/03/16 04:20:17;;;;;;;71.07;38.70;;;;;;;0.78;58.69;98086.94;124305;1105;104271;-72
2021/03/16 04:22:45;;;;;;;74.77;40.37;;;;;;;0.79;58.94;98086.85;124229;1105;104185;-72
2021/03/16 04:25:12;;;;;;;79.07;42.23;;;;;;;0.81;58.58;98086.80;124249;1105;104258;-72
2021/03/16 04:27:39;;;;;;;76.63;43.50;;;;;;;0.81;58.57;98085.01;124150;1105;104252;-72
2021/03/16 04:30:10;;;;;;;77.27;40.20;;;;;;;0.82;59.01;98084.09;124207;1105;104660;-73
2021/03/16 04:32:37;;;;;;;81.25;43.20;;;;;;;0.82;58.91;98088.46;124249;1106;104322;-76
2021/03/16 04:35:07;;;;;;;79.37;42.93;;;;;;;0.78;58.51;98079.92;124304;1105;104258;-72
2021/03/16 04:37:34;;;;;;;78.23;42.90;;;;;;;0.78;58.80;98087.77;124184;1106;104262;-72
2021/03/16 04:40:01;;;;;;;76.37;41.47;;;;;;;0.74;58.72;98089.70;124043;1105;104227;-72
2021/03/16 04:42:28;;;;;;;79.60;41.30;;;;;;;0.76;59.11;98088.78;124085;1105;104198;-71
2021/03/16 04:44:55;;;;;;;75.97;40.20;;;;;;;0.77;59.11;98096.55;125121;1105;104775;-72
2021/03/16 04:47:22;;;;;;;86.73;43.93;;;;;;;0.78;59.10;98085.16;124271;1105;104243;-70
2021/03/16 04:49:51;;;;;;;81.27;43.00;;;;;;;0.82;59.07;98096.31;124218;1105;104545;-71
2021/03/16 04:52:18;;;;;;;82.87;44.90;;;;;;;0.82;58.92;98096.31;123964;1105;104354;-72
2021/03/16 04:54:45;;;;;;;76.93;44.40;;;;;;;0.81;59.32;98092.86;124238;1105;104175;-70
2021/03/16 04:57:12;;;;;;;75.53;42.07;;;;;;;0.85;59.07;98096.17;124283;1105;104242;-71
2021/03/16 04:59:40;;;;;;;82.57;44.37;;;;;;;0.86;59.35;98095.25;124297;1105;104182;-72
2021/03/16 05:02:07;;;;;;;89.47;45.03;;;;;;;0.89;59.21;98102.95;124184;1105;104217;-71
2021/03/16 05:04:39;;;;;;;83.00;43.70;;;;;;;0.92;59.62;98104.59;124279;1105;104643;-73
2021/03/16 05:07:06;;;;;;;83.20;44.37;;;;;;;0.93;59.67;98103.67;124221;1105;104245;-71
2021/03/16 05:09:33;;;;;;;84.32;45.40;;;;;;;0.92;59.46;98105.42;124280;1105;104197;-72
2021/03/16 05:12:00;;;;;;;81.75;44.65;;;;;;;0.91;59.34;98113.37;124178;1105;104188;-71
2021/03/16 05:14:27;;;;;;;87.65;46.55;;;;;;;0.89;59.33;98116.91;124032;1105;104270;-72
2021/03/16 05:16:54;;;;;;;84.13;45.67;;;;;;;0.87;59.51;98116.13;124186;1105;104256;-71
2021/03/16 05:19:22;;;;;;;84.63;45.40;;;;;;;0.86;59.10;98117.05;124208;1105;104265;-72
2021/03/16 05:21:49;;;;;;;90.85;46.10;;;;;;;0.81;59.00;98116.42;125494;1105;104320;-72
2021/03/16 05:24:16;;;;;;;90.63;46.23;;;;;;;0.78;59.33;98115.73;124320;1105;104261;-71
2021/03/16 05:26:45;;;;;;;88.07;45.97;;;;;;;0.78;59.55;98113.13;124266;1105;104261;-72
2021/03/16 05:29:12;;;;;;;87.30;47.67;;;;;;;0.78;59.65;98111.34;124300;1105;104711;-72
2021/03/16 05:31:42;;;;;;;91.53;49.13;;;;;;;0.78;59.86;98113.95;124308;1105;104434;-72
2021/03/16 05:34:09;;;;;;;86.43;47.13;;;;;;;0.77;59.51;98120.11;124268;1105;104261;-71
2021/03/16 05:36:38;;;;;;;88.43;46.97;;;;;;;0.80;59.66;98119.13;124283;1105;104194;-72
2021/03/16 05:39:05;;;;;;;89.32;46.90;;;;;;;0.82;59.86;98125.98;124229;1105;104246;-72
2021/03/16 05:41:40;;;;;;;97.60;50.50;;;;;;;0.80;59.65;98122.58;124237;1104;104255;-72
2021/03/16 05:44:11;;;;;;;87.10;44.93;;;;;;;0.80;59.71;98125.20;124313;1105;104227;-72
2021/03/16 05:46:41;;;;;;;86.47;44.70;;;;;;;0.82;59.79;98128.59;124285;1105;104277;-73
2021/03/16 05:49:11;;;;;;;88.77;48.67;;;;;;;0.80;59.87;98137.45;124216;1105;104230;-72
2021/03/16 05:51:38;;;;;;;92.97;49.93;;;;;;;0.84;60.00;98134.61;124176;1105;104259;-72
2021/03/16 05:54:05;;;;;;;98.37;50.93;;;;;;;0.91;59.90;98136.94;124190;1105;104268;-71
2021/03/16 05:56:34;;;;;;;91.95;47.20;;;;;;;0.87;59.74;98138.84;124255;1105;104236;-72
2021/03/16 05:59:20;;;;;;;91.47;47.60;;;;;;;0.86;59.45;98134.52;123956;1105;104161;-72
2021/03/16 06:01:47;;;;;;;85.77;45.93;;;;;;;0.87;60.13;98142.31;124247;1105;104184;-72
2021/03/16 06:04:14;;;;;;;88.90;49.17;;;;;;;0.86;60.15;98150.23;124169;1106;104246;-73
2021/03/16 06:06:41;;;;;;;85.50;47.60;;;;;;;0.91;60.30;98148.24;124189;1105;104281;-73
2021/03/16 06:09:09;;;;;;;91.27;47.27;;;;;;;0.98;60.20;98154.05;124276;1104;104428;-73
2021/03/16 06:11:45;;;;;;;86.42;46.65;;;;;;;1.03;60.35;98158.13;124186;1105;104155;-72
2021/03/16 06:14:12;;;;;;;78.93;44.73;;;;;;;1.06;60.47;98156.30;125111;1105;104140;-72
2021/03/16 06:16:42;;;;;;;85.57;45.53;;;;;;;1.09;60.16;98159.59;124245;1105;104217;-71
2021/03/16 06:19:16;;;;;;;83.13;46.37;;;;;;;1.13;60.24;98158.53;124284;1105;104169;-72
2021/03/16 06:21:43;;;;;;;86.40;46.87;;;;;;;1.19;60.30;98167.88;124250;1105;104318;-73
2021/03/16 06:24:16;;;;;;;87.67;46.45;;;;;;;1.25;60.17;98175.41;124257;1105;104322;-71
2021/03/16 06:26:49;;;;;;;86.40;46.83;;;;;;;1.33;60.63;98175.05;124293;1105;104163;-72
2021/03/16 06:29:16;;;;;;;91.77;47.23;;;;;;;1.39;60.47;98168.65;124210;1106;104271;-71
2021/03/16 06:31:43;;;;;;;87.67;45.87;;;;;;;1.46;60.38;98165.64;123997;1106;104399;-73
2021/03/16 06:34:21;;;;;;;83.57;46.47;;;;;;;1.46;60.49;98170.05;124123;1105;104265;-72
2021/03/16 06:36:59;;;;;;;90.67;45.77;;;;;;;1.45;60.50;98177.05;124122;1105;104162;-72
2021/03/16 06:39:28;;;;;;;89.93;47.07;;;;;;;1.47;60.91;98174.37;124214;1105;104293;-72
2021/03/16 06:41:55;;;;;;;85.13;46.70;;;;;;;1.51;60.74;98177.67;125332;1105;104159;-73
2021/03/16 06:44:25;;;;;;;84.73;44.47;;;;;;;1.53;60.78;98178.44;124247;1105;104319;-72
2021/03/16 06:46:59;;;;;;;93.07;49.47;;;;;;;1.55;60.10;98181.83;124134;1105;104256;-74
2021/03/16 06:49:32;;;;;;;89.07;45.20;;;;;;;1.59;60.52;98184.24;124107;1105;104351;-73
2021/03/16 06:52:10;;;;;;;82.85;46.05;;;;;;;1.61;60.51;98185.02;124163;1105;104242;-74
2021/03/16 06:54:38;;;;;;;87.23;45.37;;;;;;;1.63;61.07;98179.69;124175;1105;104759;-71
2021/03/16 06:57:06;;;;;;;80.25;43.42;;;;;;;1.67;61.29;98185.61;124171;1105;104162;-75
2021/03/16 06:59:33;;;;;;;83.60;45.77;;;;;;;1.72;61.23;98191.47;123999;1105;104185;-73
2021/03/16 07:02:16;;;;;;;83.27;45.53;;;;;;;1.76;60.77;98187.77;124200;1105;104698;-72
2021/03/16 07:04:45;;;;;;;86.83;45.43;;;;;;;1.78;60.89;98189.41;124661;1105;104580;-72
2021/03/16 07:07:12;;;;;;;86.03;45.80;;;;;;;1.78;60.97;98192.02;124137;1105;104160;-73
2021/03/16 07:09:42;;;;;;;77.70;44.43;;;;;;;1.81;61.20;98198.05;124207;1105;104185;-72
2021/03/16 07:12:12;;;;;;;82.60;44.37;;;;;;;1.87;61.08;98205.57;124237;1105;104208;-72
2021/03/16 07:14:43;;;;;;;86.00;45.07;;;;;;;1.94;61.27;98204.33;124192;1105;104294;-72
2021/03/16 07:17:13;;;;;;;81.80;44.03;;;;;;;1.99;61.33;98204.95;124257;1105;104313;-73
2021/03/16 07:19:48;;;;;;;80.33;44.07;;;;;;;2.06;61.60;98205.47;124247;1105;104265;-72
2021/03/16 07:22:22;;;;;;;91.73;45.67;;;;;;;2.15;60.95;98212.03;124290;1105;104258;-72
2021/03/16 07:24:50;;;;;;;87.90;46.30;;;;;;;2.19;61.60;98205.70;124278;1105;104568;-72
2021/03/16 07:27:17;;;;;;;93.13;47.93;;;;;;;2.21;61.63;98202.06;124251;1105;104162;-73
2021/03/16 07:29:46;;;;;;;86.30;45.17;;;;;;;2.27;61.96;98200.05;124157;1106;104236;-73
2021/03/16 07:32:15;;;;;;;85.83;46.47;;;;;;;2.27;61.68;98211.38;125060;1105;104265;-72
2021/03/16 07:34:47;;;;;;;77.37;40.57;;;;;;;2.26;61.64;98208.84;124437;1105;104358;-74
2021/03/16 07:37:16;;;;;;;84.83;44.33;;;;;;;2.29;61.60;98209.52;124163;1105;104377;-71
2021/03/16 07:39:44;;;;;;;87.13;45.13;;;;;;;2.36;61.86;98208.27;124078;1105;104185;-79
2021/03/16 07:42:15;;;;;;;78.87;43.90;;;;;;;2.52;62.24;98204.84;124218;1105;104185;-76
2021/03/16 07:44:44;;;;;;;84.23;45.37;;;;;;;2.64;61.05;98209.44;124285;1105;104571;-78
2021/03/16 07:47:16;;;;;;;;;;;;;;;2.70;61.77;98216.13;124141;1105;104306;-76
2021/03/16 07:49:45;;;;;;;76.30;43.53;;;;;;;2.77;61.96;98206.98;124214;1105;104185;-77
2021/03/16 07:52:24;;;;;;;79.27;42.57;;;;;;;2.89;62.06;98207.23;124151;1105;104240;-76
2021/03/16 07:54:54;;;;;;;80.93;44.53;;;;;;;3.04;61.95;98213.44;123980;1105;104239;-76
2021/03/16 07:57:35;;;;;;;77.03;45.00;;;;;;;3.11;61.64;98210.37;123927;1105;104217;-76
2021/03/16 08:00:09;;;;;;;80.20;45.27;;;;;;;3.20;61.98;98210.80;124066;1105;104162;-77
2021/03/16 08:02:38;;;;;;;78.27;44.80;;;;;;;3.30;62.13;98214.58;124925;1105;104377;-77
2021/03/16 08:05:17;;;;;;;74.80;42.67;;;;;;;3.38;62.28;98208.91;124238;1105;104331;-77
2021/03/16 08:07:44;;;;;;;81.17;43.73;;;;;;;3.49;62.18;98214.38;124242;1105;104140;-76
2021/03/16 08:10:11;;;;;;;76.93;42.70;;;;;;;3.60;61.60;98212.91;124219;1106;104262;-75
2021/03/16 08:12:41;;;;;;;86.33;46.00;;;;;;;3.67;61.84;98216.89;124715;1105;104262;-76
2021/03/16 08:15:15;;;;;;;73.30;42.33;;;;;;;3.76;61.85;98210.23;123985;1105;104294;-76
2021/03/16 08:17:58;;;;;;;75.03;42.10;;;;;;;3.84;61.96;98216.77;124248;1105;104157;-75
2021/03/16 08:20:27;;;;;;;75.00;43.67;;;;;;;3.96;61.97;98217.81;124158;1105;104248;-76
2021/03/16 08:23:07;;;;;;;74.20;42.23;;;;;;;4.06;61.99;98214.64;124268;1105;104262;-75
2021/03/16 08:25:34;;;;;;;70.57;40.30;;;;;;;4.19;61.93;98217.37;124213;1105;104190;-75
2021/03/16 08:28:09;;;;;;;72.90;40.80;;;;;;;4.30;62.25;98218.42;124303;1105;104264;-75
2021/03/16 08:30:43;;;;;;;66.40;37.67;;;;;;;4.45;62.04;98213.16;124791;1105;104152;-75
2021/03/16 08:33:17;;;;;;;64.97;36.97;;;;;;;4.58;62.47;98215.89;124299;1105;104194;-76
2021/03/16 08:35:55;;;;;;;60.63;33.20;;;;;;;4.75;62.64;98225.37;123825;1105;104181;-75
2021/03/16 08:38:28;;;;;;;53.25;29.50;;;;;;;4.92;62.39;98221.67;124216;1105;104221;-76
2021/03/16 08:41:10;;;;;;;55.70;30.90;;;;;;;5.01;62.11;98218.47;123927;1105;104157;-76
2021/03/16 08:43:40;;;;;;;54.37;28.40;;;;;;;5.18;62.37;98219.16;124095;1105;104246;-74
2021/03/16 08:46:11;;;;;;;55.03;28.73;;;;;;;5.38;62.19;98222.31;124083;1105;104347;-75
2021/03/16 08:48:43;;;;;;;60.50;33.00;;;;;;;5.56;62.17;98220.27;123841;1105;104801;-75
2021/03/16 08:51:11;;;;;;;52.17;29.40;;;;;;;5.68;62.16;98215.96;124348;1105;104223;-72
2021/03/16 08:53:45;;;;;;;52.03;27.33;;;;;;;5.79;61.91;98218.74;124056;1105;104185;-75
2021/03/16 08:56:20;;;;;;;50.00;28.23;;;;;;;6.00;62.40;98224.41;125030;1105;104185;-76
2021/03/16 08:58:50;;;;;;;52.00;28.77;;;;;;;6.18;61.94;98221.45;124605;1105;104258;-75
2021/03/16 09:01:33;;;;;;;52.70;28.80;;;;;;;6.32;62.53;98237.20;123903;1106;104289;-76
2021/03/16 09:04:12;;;;;;;59.15;30.72;;;;;;;6.46;62.47;98224.84;124239;1105;104249;-76
2021/03/16 09:06:44;;;;;;;49.87;28.07;;;;;;;6.59;61.86;98223.02;124779;1105;105392;-79
2021/03/16 09:09:13;;;;;;;58.00;31.13;;;;;;;6.68;61.83;98225.03;124165;1105;104185;-77
2021/03/16 09:11:46;;;;;;;55.20;31.70;;;;;;;6.70;62.53;98220.48;124231;1105;104220;-76
2021/03/16 09:14:17;;;;;;;54.13;29.47;;;;;;;6.78;62.37;98222.57;124161;1105;104236;-77
2021/03/16 09:16:52;;;;;;;47.83;27.60;;;;;;;6.97;62.01;98216.82;123969;1106;104213;-77
2021/03/16 09:19:26;;;;;;;56.33;30.93;;;;;;;7.26;62.39;98213.03;124184;1105;104185;-76
2021/03/16 09:22:05;;;;;;;52.08;26.93;;;;;;;7.52;62.30;98219.06;124230;1105;104229;-76
2021/03/16 09:24:32;;;;;;;47.00;25.80;;;;;;;7.68;62.57;98215.29;124199;1105;104190;-76
2021/03/16 09:27:06;;;;;;;42.10;24.53;;;;;;;7.92;61.95;98215.25;124268;1105;104262;-76
2021/03/16 09:29:38;;;;;;;43.30;24.17;;;;;;;8.22;62.14;98213.01;124146;1105;104281;-78
2021/03/16 09:32:17;;;;;;;45.60;22.53;;;;;;;8.59;62.48;98212.84;124995;1105;104146;-77
2021/03/16 09:34:47;;;;;;;30.03;15.70;;;;;;;8.88;61.85;98209.72;124115;1105;104628;-74
2021/03/16 09:37:19;;;;;;;30.65;14.10;;;;;;;9.10;62.14;98216.80;124136;1105;104159;-75
2021/03/16 09:39:55;;;;;;;30.80;14.37;;;;;;;9.37;61.87;98213.70;123937;1106;104274;-76
2021/03/16 09:42:44;;;;;;;26.30;13.13;;;;;;;9.67;62.29;98214.82;123794;1105;104235;-78
2021/03/16 09:45:19;;;;;;;26.57;12.37;;;;;;;9.92;61.38;98212.77;125696;1105;104025;-80
2021/03/16 09:47:48;;;;;;;30.20;13.03;;;;;;;10.12;61.98;98215.57;124395;1105;104310;-78
2021/03/16 09:50:37;;;;;;;24.57;11.77;;;;;;;10.33;61.75;98215.56;124046;1105;104143;-79
2021/03/16 09:53:14;;;;;;;29.27;13.90;;;;;;;10.57;61.15;98217.10;124202;1105;104258;-80
2021/03/16 09:55:57;;;;;;;25.67;12.00;;;;;;;10.77;61.72;98211.88;124226;1105;104176;-78
2021/03/16 09:58:30;;;;;;;24.33;11.90;;;;;;;10.86;61.88;98214.58;124119;1106;104255;-78
2021/03/16 10:01:05;;;;;;;26.50;11.27;;;;;;;10.91;61.45;98210.67;124179;1105;104248;-77
2021/03/16 10:03:33;;;;;;;22.67;9.33;;;;;;;10.99;60.93;98211.67;124243;1105;104264;-77
2021/03/16 10:06:06;;;;;;;24.33;10.80;;;;;;;11.06;60.86;98206.63;124204;1105;104181;-77
2021/03/16 10:08:37;;;;;;;21.37;8.90;;;;;;;10.99;60.76;98209.00;124044;1105;104242;-77
2021/03/16 10:11:04;;;;;;;19.90;8.13;;;;;;;10.91;60.76;98211.50;124108;1105;104367;-74
2021/03/16 10:13:38;;;;;;;21.42;8.65;;;;;;;10.93;61.05;98204.22;124209;1105;104246;-76
2021/03/16 10:16:13;;;;;;;20.37;8.17;;;;;;;10.85;60.58;98207.56;124153;1106;104255;-75
2021/03/16 10:18:48;;;;;;;21.30;8.90;;;;;;;10.80;60.41;98209.78;124313;1105;104233;-72
2021/03/16 10:21:26;;;;;;;22.03;9.10;;;;;;;10.70;59.96;98206.23;123951;1105;104274;-72
2021/03/16 10:23:59;;;;;;;20.87;8.40;;;;;;;10.61;60.31;98205.23;123962;1105;104286;-71
2021/03/16 10:26:26;;;;;;;20.50;8.50;;;;;;;10.56;60.29;98204.78;124188;1105;104149;-76
2021/03/16 10:29:12;;;;;;;19.37;7.60;;;;;;;10.54;59.73;98202.27;124218;1105;104185;-72
2021/03/16 10:31:39;;;;;;;16.57;6.60;;;;;;;10.49;60.61;98204.48;124213;1105;104239;-74
2021/03/16 10:34:09;;;;;;;19.07;8.00;;;;;;;10.45;59.87;98199.54;124251;1105;104207;-73
2021/03/16 10:36:36;;;;;;;20.08;7.97;;;;;;;10.40;59.97;98207.92;124182;1106;104264;-74
2021/03/16 10:39:04;;;;;;;19.13;7.90;;;;;;;10.31;60.15;98211.33;124176;1105;104258;-74
2021/03/16 10:41:31;;;;;;;22.17;7.80;;;;;;;10.18;59.62;98215.06;124179;1105;104187;-74
2021/03/16 10:44:01;;;;;;;19.47;8.07;;;;;;;10.09;59.79;98216.66;124150;1105;104309;-73
2021/03/16 10:46:28;;;;;;;19.20;7.30;;;;;;;9.97;59.64;98215.88;124225;1105;104162;-75
2021/03/16 10:48:59;;;;;;;20.20;7.33;;;;;;;9.87;59.41;98214.13;124242;1105;104254;-76
2021/03/16 10:51:26;;;;;;;21.90;9.23;;;;;;;9.83;59.48;98209.08;124123;1105;104320;-76
2021/03/16 10:53:53;;;;;;;19.60;8.47;;;;;;;9.84;59.38;98207.24;124249;1106;104181;-76
2021/03/16 10:56:20;;;;;;;19.00;7.73;;;;;;;9.79;58.86;98220.92;124202;1105;104224;-76
2021/03/16 10:58:47;;;;;;;18.07;6.93;;;;;;;9.71;59.00;98211.91;124236;1105;104255;-75
2021/03/16 11:01:18;;;;;;;17.93;7.43;;;;;;;9.58;59.00;98214.75;124188;1105;104306;-75
2021/03/16 11:03:45;;;;;;;21.03;8.03;;;;;;;9.47;58.84;98219.12;124104;1105;104249;-75
2021/03/16 11:06:13;;;;;;;20.93;7.90;;;;;;;9.36;58.76;98214.70;124337;1105;104194;-77
2021/03/16 11:08:40;;;;;;;19.60;8.05;;;;;;;9.19;58.53;98213.38;124126;1105;104258;-75
2021/03/16 11:11:08;;;;;;;19.17;8.07;;;;;;;9.10;58.44;98216.80;124047;1105;104254;-75
2021/03/16 11:13:37;;;;;;;22.37;8.77;;;;;;;9.02;58.35;98213.91;124072;1105;104396;-75
2021/03/16 11:16:04;;;;;;;18.67;8.08;;;;;;;8.96;58.28;98219.70;124081;1105;104242;-76
2021/03/16 11:18:32;;;;;;;20.80;7.57;;;;;;;8.85;58.10;98217.91;124169;1105;104252;-74
2021/03/16 11:21:00;;;;;;;16.63;6.23;;;;;;;8.74;58.13;98213.47;124196;1105;104636;-74
2021/03/16 11:23:27;;;;;;;15.80;6.50;;;;;;;8.67;58.04;98214.91;124086;1105;104320;-74
2021/03/16 11:25:54;;;;;;;18.73;6.93;;;;;;;8.57;58.13;98206.81;124295;1105;104535;-74